sensor_id;sensor_type;location;lat;lon;timestamp;temperature;humidity
74294;DHT22;64044;59.904;10.738;2022-10-16T00:00:30;12.20;72.50
74294;DHT22;64044;59.904;10.738;2022-10-16T00:02:55;12.10;72.40
74294;DHT22;64044;59.904;10.738;2022-10-16T00:05:21;12.00;72.20
74294;DHT22;64044;59.904;10.738;2022-10-16T00:07:46;11.90;72.10
74294;DHT22;64044;59.904;10.738;2022-10-16T00:10:12;11.90;72.00
74294;DHT22;64044;59.904;10.738;2022-10-16T00:12:37;11.80;72.00
74294;DHT22;64044;59.904;10.738;2022-10-16T00:15:03;11.70;72.20
74294;DHT22;64044;59.904;10.738;2022-10-16T00:17:29;11.60;72.40
74294;DHT22;64044;59.904;10.738;2022-10-16T00:19:55;11.60;72.60
74294;DHT22;64044;59.904;10.738;2022-10-16T00:22:22;11.50;72.60
74294;DHT22;64044;59.904;10.738;2022-10-16T00:24:47;11.50;72.90
74294;DHT22;64044;59.904;10.738;2022-10-16T00:27:13;11.40;73.20
74294;DHT22;64044;59.904;10.738;2022-10-16T00:29:39;11.40;73.00
74294;DHT22;64044;59.904;10.738;2022-10-16T00:32:04;11.40;73.20
74294;DHT22;64044;59.904;10.738;2022-10-16T00:34:30;11.40;73.40
74294;DHT22;64044;59.904;10.738;2022-10-16T00:36:55;11.30;73.70
74294;DHT22;64044;59.904;10.738;2022-10-16T00:39:21;11.30;73.80
74294;DHT22;64044;59.904;10.738;2022-10-16T00:41:47;11.30;74.00
74294;DHT22;64044;59.904;10.738;2022-10-16T00:47:13;11.30;74.20
74294;DHT22;64044;59.904;10.738;2022-10-16T00:49:41;11.20;73.70
74294;DHT22;64044;59.904;10.738;2022-10-16T00:52:06;11.20;73.20
74294;DHT22;64044;59.904;10.738;2022-10-16T00:54:32;11.10;73.00
74294;DHT22;64044;59.904;10.738;2022-10-16T00:57:02;11.10;72.90
74294;DHT22;64044;59.904;10.738;2022-10-16T00:59:31;11.10;73.00
74294;DHT22;64044;59.904;10.738;2022-10-16T01:01:58;11.00;73.40
74294;DHT22;64044;59.904;10.738;2022-10-16T01:04:25;10.90;73.40
74294;DHT22;64044;59.904;10.738;2022-10-16T01:12:26;10.80;73.50
74294;DHT22;64044;59.904;10.738;2022-10-16T01:17:57;10.70;73.40
74294;DHT22;64044;59.904;10.738;2022-10-16T01:20:45;10.60;73.50
74294;DHT22;64044;59.904;10.738;2022-10-16T01:26:05;10.60;73.40
74294;DHT22;64044;59.904;10.738;2022-10-16T01:31:28;10.50;73.60
74294;DHT22;64044;59.904;10.738;2022-10-16T01:34:08;10.40;73.60
74294;DHT22;64044;59.904;10.738;2022-10-16T01:37:09;10.30;73.70
74294;DHT22;64044;59.904;10.738;2022-10-16T01:39:39;10.30;73.90
74294;DHT22;64044;59.904;10.738;2022-10-16T01:42:12;10.30;73.70
74294;DHT22;64044;59.904;10.738;2022-10-16T01:44:41;10.20;73.80
74294;DHT22;64044;59.904;10.738;2022-10-16T01:47:09;10.20;73.60
74294;DHT22;64044;59.904;10.738;2022-10-16T01:49:38;10.10;73.70
74294;DHT22;64044;59.904;10.738;2022-10-16T01:52:09;10.10;73.80
74294;DHT22;64044;59.904;10.738;2022-10-16T01:54:37;10.00;74.00
74294;DHT22;64044;59.904;10.738;2022-10-16T01:57:04;10.00;74.00
74294;DHT22;64044;59.904;10.738;2022-10-16T01:59:33;9.90;74.00
74294;DHT22;64044;59.904;10.738;2022-10-16T02:02:05;9.90;74.10
74294;DHT22;64044;59.904;10.738;2022-10-16T02:04:37;9.90;74.00
74294;DHT22;64044;59.904;10.738;2022-10-16T02:07:04;9.90;73.70
74294;DHT22;64044;59.904;10.738;2022-10-16T02:09:32;9.80;73.50
74294;DHT22;64044;59.904;10.738;2022-10-16T02:11:59;9.80;73.40
74294;DHT22;64044;59.904;10.738;2022-10-16T02:14:28;9.70;73.30
74294;DHT22;64044;59.904;10.738;2022-10-16T02:16:54;9.60;73.30
74294;DHT22;64044;59.904;10.738;2022-10-16T02:19:20;9.60;73.70
74294;DHT22;64044;59.904;10.738;2022-10-16T02:22:03;9.60;74.00
74294;DHT22;64044;59.904;10.738;2022-10-16T02:24:54;9.50;75.00
74294;DHT22;64044;59.904;10.738;2022-10-16T02:32:51;9.50;74.90
74294;DHT22;64044;59.904;10.738;2022-10-16T02:35:20;9.50;74.90
74294;DHT22;64044;59.904;10.738;2022-10-16T02:37:48;9.50;74.90
74294;DHT22;64044;59.904;10.738;2022-10-16T02:40:14;9.50;75.70
74294;DHT22;64044;59.904;10.738;2022-10-16T02:42:40;9.50;74.90
74294;DHT22;64044;59.904;10.738;2022-10-16T02:45:08;9.50;75.90
74294;DHT22;64044;59.904;10.738;2022-10-16T02:47:34;9.50;75.20
74294;DHT22;64044;59.904;10.738;2022-10-16T02:49:59;9.50;75.20
74294;DHT22;64044;59.904;10.738;2022-10-16T02:52:25;9.40;75.10
74294;DHT22;64044;59.904;10.738;2022-10-16T02:54:51;9.40;76.00
74294;DHT22;64044;59.904;10.738;2022-10-16T02:57:17;9.40;75.30
74294;DHT22;64044;59.904;10.738;2022-10-16T02:59:43;9.50;75.50
74294;DHT22;64044;59.904;10.738;2022-10-16T03:02:09;9.40;76.30
74294;DHT22;64044;59.904;10.738;2022-10-16T03:04:35;9.40;75.70
74294;DHT22;64044;59.904;10.738;2022-10-16T03:07:01;9.40;75.80
74294;DHT22;64044;59.904;10.738;2022-10-16T03:09:26;9.40;75.70
74294;DHT22;64044;59.904;10.738;2022-10-16T03:11:52;9.40;75.80
74294;DHT22;64044;59.904;10.738;2022-10-16T03:14:17;9.40;75.90
74294;DHT22;64044;59.904;10.738;2022-10-16T03:16:43;9.40;75.90
74294;DHT22;64044;59.904;10.738;2022-10-16T03:19:09;9.50;76.00
74294;DHT22;64044;59.904;10.738;2022-10-16T03:21:34;9.50;76.20
74294;DHT22;64044;59.904;10.738;2022-10-16T03:24:00;9.50;76.20
74294;DHT22;64044;59.904;10.738;2022-10-16T03:26:25;9.50;76.30
74294;DHT22;64044;59.904;10.738;2022-10-16T03:28:51;9.50;76.40
74294;DHT22;64044;59.904;10.738;2022-10-16T03:31:17;9.50;76.60
74294;DHT22;64044;59.904;10.738;2022-10-16T03:33:42;9.60;76.80
74294;DHT22;64044;59.904;10.738;2022-10-16T03:36:08;9.60;76.70
74294;DHT22;64044;59.904;10.738;2022-10-16T03:38:33;9.60;76.80
74294;DHT22;64044;59.904;10.738;2022-10-16T03:40:59;9.60;76.90
74294;DHT22;64044;59.904;10.738;2022-10-16T03:43:24;9.70;76.90
74294;DHT22;64044;59.904;10.738;2022-10-16T03:45:51;9.70;76.70
74294;DHT22;64044;59.904;10.738;2022-10-16T03:48:17;9.80;77.00
74294;DHT22;64044;59.904;10.738;2022-10-16T03:50:43;9.90;77.00
74294;DHT22;64044;59.904;10.738;2022-10-16T03:53:10;9.90;76.90
74294;DHT22;64044;59.904;10.738;2022-10-16T03:55:35;9.90;76.70
74294;DHT22;64044;59.904;10.738;2022-10-16T03:58:01;10.00;76.60
74294;DHT22;64044;59.904;10.738;2022-10-16T04:00:27;10.00;76.50
74294;DHT22;64044;59.904;10.738;2022-10-16T04:02:52;10.10;76.40
74294;DHT22;64044;59.904;10.738;2022-10-16T04:05:18;10.10;76.10
74294;DHT22;64044;59.904;10.738;2022-10-16T04:07:44;10.20;76.00
74294;DHT22;64044;59.904;10.738;2022-10-16T04:10:10;10.20;75.80
74294;DHT22;64044;59.904;10.738;2022-10-16T04:12:35;10.20;75.60
74294;DHT22;64044;59.904;10.738;2022-10-16T04:15:01;10.20;75.30
74294;DHT22;64044;59.904;10.738;2022-10-16T04:17:27;10.20;75.10
74294;DHT22;64044;59.904;10.738;2022-10-16T04:19:53;10.20;75.10
74294;DHT22;64044;59.904;10.738;2022-10-16T04:22:18;10.20;75.00
74294;DHT22;64044;59.904;10.738;2022-10-16T04:24:44;10.30;75.00
74294;DHT22;64044;59.904;10.738;2022-10-16T04:27:09;10.20;75.00
74294;DHT22;64044;59.904;10.738;2022-10-16T04:29:35;10.30;75.00
74294;DHT22;64044;59.904;10.738;2022-10-16T04:32:00;10.30;74.90
74294;DHT22;64044;59.904;10.738;2022-10-16T04:34:26;10.20;74.80
74294;DHT22;64044;59.904;10.738;2022-10-16T04:36:52;10.30;74.90
74294;DHT22;64044;59.904;10.738;2022-10-16T04:39:17;10.30;74.90
74294;DHT22;64044;59.904;10.738;2022-10-16T04:41:43;10.40;74.90
74294;DHT22;64044;59.904;10.738;2022-10-16T04:44:09;10.40;74.90
74294;DHT22;64044;59.904;10.738;2022-10-16T04:46:34;10.40;74.80
74294;DHT22;64044;59.904;10.738;2022-10-16T04:49:00;10.40;74.80
74294;DHT22;64044;59.904;10.738;2022-10-16T04:51:26;10.40;74.70
74294;DHT22;64044;59.904;10.738;2022-10-16T04:53:53;10.50;74.80
74294;DHT22;64044;59.904;10.738;2022-10-16T04:56:19;10.40;74.70
74294;DHT22;64044;59.904;10.738;2022-10-16T04:58:46;10.50;74.60
74294;DHT22;64044;59.904;10.738;2022-10-16T05:01:11;10.50;75.30
74294;DHT22;64044;59.904;10.738;2022-10-16T05:03:37;10.50;74.30
74294;DHT22;64044;59.904;10.738;2022-10-16T05:06:05;10.50;74.30
74294;DHT22;64044;59.904;10.738;2022-10-16T05:08:31;10.60;74.30
74294;DHT22;64044;59.904;10.738;2022-10-16T05:10:56;10.60;74.30
74294;DHT22;64044;59.904;10.738;2022-10-16T05:13:22;10.60;74.20
74294;DHT22;64044;59.904;10.738;2022-10-16T05:15:49;10.60;74.20
74294;DHT22;64044;59.904;10.738;2022-10-16T05:18:15;10.60;74.10
74294;DHT22;64044;59.904;10.738;2022-10-16T05:20:42;10.60;74.10
74294;DHT22;64044;59.904;10.738;2022-10-16T05:23:08;10.70;74.20
74294;DHT22;64044;59.904;10.738;2022-10-16T05:25:36;10.70;74.10
74294;DHT22;64044;59.904;10.738;2022-10-16T05:28:01;10.70;74.10
74294;DHT22;64044;59.904;10.738;2022-10-16T05:30:27;10.70;74.10
74294;DHT22;64044;59.904;10.738;2022-10-16T05:32:52;10.70;74.10
74294;DHT22;64044;59.904;10.738;2022-10-16T05:35:19;10.80;74.10
74294;DHT22;64044;59.904;10.738;2022-10-16T05:37:45;10.80;74.00
74294;DHT22;64044;59.904;10.738;2022-10-16T05:40:11;10.80;73.90
74294;DHT22;64044;59.904;10.738;2022-10-16T05:42:38;10.80;73.80
74294;DHT22;64044;59.904;10.738;2022-10-16T05:45:11;10.80;73.90
74294;DHT22;64044;59.904;10.738;2022-10-16T05:47:37;10.80;73.90
74294;DHT22;64044;59.904;10.738;2022-10-16T05:50:03;10.90;73.90
74294;DHT22;64044;59.904;10.738;2022-10-16T05:52:29;10.90;73.90
74294;DHT22;64044;59.904;10.738;2022-10-16T05:54:55;10.80;73.80
74294;DHT22;64044;59.904;10.738;2022-10-16T05:57:20;10.90;73.80
74294;DHT22;64044;59.904;10.738;2022-10-16T05:59:46;10.80;73.80
74294;DHT22;64044;59.904;10.738;2022-10-16T06:02:13;10.80;73.90
74294;DHT22;64044;59.904;10.738;2022-10-16T06:04:39;10.80;74.00
74294;DHT22;64044;59.904;10.738;2022-10-16T06:07:04;10.80;74.00
74294;DHT22;64044;59.904;10.738;2022-10-16T06:09:30;10.80;74.20
74294;DHT22;64044;59.904;10.738;2022-10-16T06:11:56;10.80;74.20
74294;DHT22;64044;59.904;10.738;2022-10-16T06:14:21;10.70;74.20
74294;DHT22;64044;59.904;10.738;2022-10-16T06:16:47;10.70;74.40
74294;DHT22;64044;59.904;10.738;2022-10-16T06:19:13;10.70;74.50
74294;DHT22;64044;59.904;10.738;2022-10-16T06:21:38;10.70;74.60
74294;DHT22;64044;59.904;10.738;2022-10-16T06:24:04;10.70;74.70
74294;DHT22;64044;59.904;10.738;2022-10-16T06:26:30;10.80;74.80
74294;DHT22;64044;59.904;10.738;2022-10-16T06:28:57;10.80;74.70
74294;DHT22;64044;59.904;10.738;2022-10-16T06:31:24;10.80;74.70
74294;DHT22;64044;59.904;10.738;2022-10-16T06:33:53;10.80;74.80
74294;DHT22;64044;59.904;10.738;2022-10-16T06:36:19;10.80;74.80
74294;DHT22;64044;59.904;10.738;2022-10-16T06:38:45;10.80;74.90
74294;DHT22;64044;59.904;10.738;2022-10-16T06:41:14;10.80;74.80
74294;DHT22;64044;59.904;10.738;2022-10-16T06:43:39;10.80;74.70
74294;DHT22;64044;59.904;10.738;2022-10-16T06:46:07;10.80;74.70
74294;DHT22;64044;59.904;10.738;2022-10-16T06:48:34;10.80;75.00
74294;DHT22;64044;59.904;10.738;2022-10-16T06:51:05;10.80;75.10
74294;DHT22;64044;59.904;10.738;2022-10-16T06:53:32;10.80;75.30
74294;DHT22;64044;59.904;10.738;2022-10-16T06:55:58;10.90;75.60
74294;DHT22;64044;59.904;10.738;2022-10-16T06:58:23;10.90;74.90
74294;DHT22;64044;59.904;10.738;2022-10-16T07:00:54;10.90;74.90
74294;DHT22;64044;59.904;10.738;2022-10-16T07:03:20;10.90;74.90
74294;DHT22;64044;59.904;10.738;2022-10-16T07:05:45;10.90;74.90
74294;DHT22;64044;59.904;10.738;2022-10-16T07:08:11;10.90;75.00
74294;DHT22;64044;59.904;10.738;2022-10-16T07:10:36;10.90;75.10
74294;DHT22;64044;59.904;10.738;2022-10-16T07:13:02;10.90;75.30
74294;DHT22;64044;59.904;10.738;2022-10-16T07:15:28;11.00;75.50
74294;DHT22;64044;59.904;10.738;2022-10-16T07:17:53;11.00;75.60
74294;DHT22;64044;59.904;10.738;2022-10-16T07:20:19;11.00;75.60
74294;DHT22;64044;59.904;10.738;2022-10-16T07:22:45;11.10;75.60
74294;DHT22;64044;59.904;10.738;2022-10-16T07:25:11;11.10;75.60
74294;DHT22;64044;59.904;10.738;2022-10-16T07:27:37;11.20;75.70
74294;DHT22;64044;59.904;10.738;2022-10-16T07:30:03;11.20;75.70
74294;DHT22;64044;59.904;10.738;2022-10-16T07:32:29;11.30;75.60
74294;DHT22;64044;59.904;10.738;2022-10-16T07:34:55;11.30;75.40
74294;DHT22;64044;59.904;10.738;2022-10-16T07:37:21;11.30;75.20
74294;DHT22;64044;59.904;10.738;2022-10-16T07:39:47;11.40;75.20
74294;DHT22;64044;59.904;10.738;2022-10-16T07:42:13;11.40;75.20
74294;DHT22;64044;59.904;10.738;2022-10-16T07:44:38;11.50;75.30
74294;DHT22;64044;59.904;10.738;2022-10-16T07:47:05;11.50;75.20
74294;DHT22;64044;59.904;10.738;2022-10-16T07:49:31;11.50;75.00
74294;DHT22;64044;59.904;10.738;2022-10-16T07:51:56;11.60;74.90
74294;DHT22;64044;59.904;10.738;2022-10-16T07:54:22;11.60;74.70
74294;DHT22;64044;59.904;10.738;2022-10-16T07:56:47;11.60;74.60
74294;DHT22;64044;59.904;10.738;2022-10-16T07:59:13;11.70;74.60
74294;DHT22;64044;59.904;10.738;2022-10-16T08:01:39;11.70;74.60
74294;DHT22;64044;59.904;10.738;2022-10-16T08:04:05;11.70;74.60
74294;DHT22;64044;59.904;10.738;2022-10-16T08:06:36;11.70;74.50
74294;DHT22;64044;59.904;10.738;2022-10-16T08:09:02;11.80;74.50
74294;DHT22;64044;59.904;10.738;2022-10-16T08:11:28;11.80;74.50
74294;DHT22;64044;59.904;10.738;2022-10-16T08:13:53;11.80;74.40
74294;DHT22;64044;59.904;10.738;2022-10-16T08:16:19;11.90;74.40
74294;DHT22;64044;59.904;10.738;2022-10-16T08:18:45;11.90;74.30
74294;DHT22;64044;59.904;10.738;2022-10-16T08:21:14;11.90;74.30
74294;DHT22;64044;59.904;10.738;2022-10-16T08:23:40;12.00;74.40
74294;DHT22;64044;59.904;10.738;2022-10-16T08:26:07;12.00;74.40
74294;DHT22;64044;59.904;10.738;2022-10-16T08:28:33;12.00;74.40
74294;DHT22;64044;59.904;10.738;2022-10-16T08:31:14;12.10;74.40
74294;DHT22;64044;59.904;10.738;2022-10-16T08:33:42;12.10;74.30
74294;DHT22;64044;59.904;10.738;2022-10-16T08:36:10;12.10;74.20
74294;DHT22;64044;59.904;10.738;2022-10-16T08:38:36;12.20;74.20
74294;DHT22;64044;59.904;10.738;2022-10-16T08:46:39;12.20;74.10
74294;DHT22;64044;59.904;10.738;2022-10-16T08:49:11;12.30;74.20
74294;DHT22;64044;59.904;10.738;2022-10-16T08:51:38;12.30;74.10
74294;DHT22;64044;59.904;10.738;2022-10-16T08:54:05;12.30;74.00
74294;DHT22;64044;59.904;10.738;2022-10-16T08:56:31;12.40;74.00
74294;DHT22;64044;59.904;10.738;2022-10-16T08:58:59;12.40;74.00
74294;DHT22;64044;59.904;10.738;2022-10-16T09:02:01;12.40;73.90
74294;DHT22;64044;59.904;10.738;2022-10-16T09:07:11;12.50;73.80
74294;DHT22;64044;59.904;10.738;2022-10-16T09:13:19;12.40;73.90
74294;DHT22;64044;59.904;10.738;2022-10-16T09:21:26;12.50;74.20
74294;DHT22;64044;59.904;10.738;2022-10-16T09:23:55;12.50;74.90
74294;DHT22;64044;59.904;10.738;2022-10-16T09:26:22;12.60;74.30
74294;DHT22;64044;59.904;10.738;2022-10-16T09:28:48;12.60;74.40
74294;DHT22;64044;59.904;10.738;2022-10-16T09:31:16;12.60;74.40
74294;DHT22;64044;59.904;10.738;2022-10-16T09:33:44;12.60;74.50
74294;DHT22;64044;59.904;10.738;2022-10-16T09:36:11;12.70;74.50
74294;DHT22;64044;59.904;10.738;2022-10-16T09:38:38;12.80;74.60
74294;DHT22;64044;59.904;10.738;2022-10-16T09:41:24;12.80;74.60
74294;DHT22;64044;59.904;10.738;2022-10-16T09:43:57;12.90;74.70
74294;DHT22;64044;59.904;10.738;2022-10-16T09:46:36;12.90;74.50
74294;DHT22;64044;59.904;10.738;2022-10-16T09:49:22;12.90;74.40
74294;DHT22;64044;59.904;10.738;2022-10-16T09:51:49;12.90;74.50
74294;DHT22;64044;59.904;10.738;2022-10-16T09:54:20;13.00;74.40
74294;DHT22;64044;59.904;10.738;2022-10-16T09:56:47;13.00;74.60
74294;DHT22;64044;59.904;10.738;2022-10-16T09:59:21;13.00;74.60
74294;DHT22;64044;59.904;10.738;2022-10-16T10:01:51;13.10;74.60
74294;DHT22;64044;59.904;10.738;2022-10-16T10:04:19;13.10;74.50
74294;DHT22;64044;59.904;10.738;2022-10-16T10:06:50;13.10;74.40
74294;DHT22;64044;59.904;10.738;2022-10-16T10:09:38;13.10;74.50
74294;DHT22;64044;59.904;10.738;2022-10-16T10:12:05;13.10;74.70
74294;DHT22;64044;59.904;10.738;2022-10-16T10:14:46;13.10;74.40
74294;DHT22;64044;59.904;10.738;2022-10-16T10:17:18;13.10;74.50
74294;DHT22;64044;59.904;10.738;2022-10-16T10:19:48;13.10;74.70
74294;DHT22;64044;59.904;10.738;2022-10-16T10:41:52;13.10;75.10
74294;DHT22;64044;59.904;10.738;2022-10-16T10:46:51;13.20;75.40
74294;DHT22;64044;59.904;10.738;2022-10-16T11:06:33;13.50;75.30
74294;DHT22;64044;59.904;10.738;2022-10-16T11:10:12;13.50;75.10
74294;DHT22;64044;59.904;10.738;2022-10-16T11:12:31;13.60;75.00
74294;DHT22;64044;59.904;10.738;2022-10-16T11:15:04;13.60;74.50
74294;DHT22;64044;59.904;10.738;2022-10-16T11:17:40;13.60;74.40
74294;DHT22;64044;59.904;10.738;2022-10-16T11:20:32;13.60;74.20
74294;DHT22;64044;59.904;10.738;2022-10-16T11:23:31;13.60;74.20
74294;DHT22;64044;59.904;10.738;2022-10-16T11:26:02;13.60;73.90
74294;DHT22;64044;59.904;10.738;2022-10-16T11:28:46;13.60;73.70
74294;DHT22;64044;59.904;10.738;2022-10-16T11:31:40;13.60;73.80
74294;DHT22;64044;59.904;10.738;2022-10-16T11:34:32;13.60;73.80
74294;DHT22;64044;59.904;10.738;2022-10-16T11:39:44;13.40;73.90
74294;DHT22;64044;59.904;10.738;2022-10-16T11:42:21;13.50;73.90
74294;DHT22;64044;59.904;10.738;2022-10-16T11:47:42;13.40;74.20
74294;DHT22;64044;59.904;10.738;2022-10-16T11:53:29;13.30;74.40
74294;DHT22;64044;59.904;10.738;2022-10-16T11:56:00;13.30;74.50
74294;DHT22;64044;59.904;10.738;2022-10-16T12:01:36;13.20;74.40
74294;DHT22;64044;59.904;10.738;2022-10-16T12:07:09;13.10;74.50
74294;DHT22;64044;59.904;10.738;2022-10-16T12:09:40;13.10;74.60
74294;DHT22;64044;59.904;10.738;2022-10-16T12:12:37;13.10;74.60
74294;DHT22;64044;59.904;10.738;2022-10-16T12:15:27;13.00;74.50
74294;DHT22;64044;59.904;10.738;2022-10-16T12:18:24;13.00;74.60
74294;DHT22;64044;59.904;10.738;2022-10-16T12:20:58;13.00;74.60
74294;DHT22;64044;59.904;10.738;2022-10-16T12:23:24;13.00;74.60
74294;DHT22;64044;59.904;10.738;2022-10-16T12:25:58;13.00;74.60
74294;DHT22;64044;59.904;10.738;2022-10-16T12:28:29;13.00;74.70
74294;DHT22;64044;59.904;10.738;2022-10-16T12:30:56;13.00;74.70
74294;DHT22;64044;59.904;10.738;2022-10-16T12:33:27;12.90;74.70
74294;DHT22;64044;59.904;10.738;2022-10-16T12:35:54;12.90;74.60
74294;DHT22;64044;59.904;10.738;2022-10-16T12:38:29;12.90;74.60
74294;DHT22;64044;59.904;10.738;2022-10-16T12:41:07;12.90;74.60
74294;DHT22;64044;59.904;10.738;2022-10-16T12:46:26;12.90;74.50
74294;DHT22;64044;59.904;10.738;2022-10-16T12:49:22;12.90;74.50
74294;DHT22;64044;59.904;10.738;2022-10-16T12:51:49;12.90;74.50
74294;DHT22;64044;59.904;10.738;2022-10-16T12:54:31;12.90;74.40
74294;DHT22;64044;59.904;10.738;2022-10-16T12:57:13;12.90;74.50
74294;DHT22;64044;59.904;10.738;2022-10-16T13:19:31;13.00;75.60
74294;DHT22;64044;59.904;10.738;2022-10-16T13:22:08;13.10;74.90
74294;DHT22;64044;59.904;10.738;2022-10-16T13:30:13;13.10;74.20
74294;DHT22;64044;59.904;10.738;2022-10-16T13:32:40;13.10;74.20
74294;DHT22;64044;59.904;10.738;2022-10-16T13:35:23;13.20;73.90
74294;DHT22;64044;59.904;10.738;2022-10-16T13:37:49;13.10;73.80
74294;DHT22;64044;59.904;10.738;2022-10-16T13:40:21;13.10;73.70
74294;DHT22;64044;59.904;10.738;2022-10-16T13:42:48;13.10;73.70
74294;DHT22;64044;59.904;10.738;2022-10-16T13:45:18;13.00;73.60
74294;DHT22;64044;59.904;10.738;2022-10-16T13:47:44;13.00;73.70
74294;DHT22;64044;59.904;10.738;2022-10-16T13:50:13;13.00;73.70
74294;DHT22;64044;59.904;10.738;2022-10-16T13:52:39;12.90;73.80
74294;DHT22;64044;59.904;10.738;2022-10-16T13:55:16;13.00;73.90
74294;DHT22;64044;59.904;10.738;2022-10-16T13:57:42;12.90;73.90
74294;DHT22;64044;59.904;10.738;2022-10-16T14:00:25;12.90;74.70
74294;DHT22;64044;59.904;10.738;2022-10-16T14:03:03;12.90;74.20
74294;DHT22;64044;59.904;10.738;2022-10-16T14:05:29;12.90;74.20
74294;DHT22;64044;59.904;10.738;2022-10-16T14:07:56;12.90;74.20
74294;DHT22;64044;59.904;10.738;2022-10-16T14:10:31;12.90;74.30
74294;DHT22;64044;59.904;10.738;2022-10-16T14:13:05;12.90;74.30
74294;DHT22;64044;59.904;10.738;2022-10-16T14:15:32;12.90;74.30
74294;DHT22;64044;59.904;10.738;2022-10-16T14:17:59;12.90;74.20
74294;DHT22;64044;59.904;10.738;2022-10-16T14:20:27;12.90;74.20
74294;DHT22;64044;59.904;10.738;2022-10-16T14:23:16;12.90;74.20
74294;DHT22;64044;59.904;10.738;2022-10-16T14:25:44;12.90;74.10
74294;DHT22;64044;59.904;10.738;2022-10-16T14:28:23;12.90;74.10
74294;DHT22;64044;59.904;10.738;2022-10-16T14:30:51;12.90;74.10
74294;DHT22;64044;59.904;10.738;2022-10-16T14:33:31;12.90;74.10
74294;DHT22;64044;59.904;10.738;2022-10-16T14:38:24;13.00;74.00
74294;DHT22;64044;59.904;10.738;2022-10-16T14:40:50;12.90;73.60
74294;DHT22;64044;59.904;10.738;2022-10-16T14:46:03;12.90;73.70
74294;DHT22;64044;59.904;10.738;2022-10-16T14:48:30;12.90;73.70
74294;DHT22;64044;59.904;10.738;2022-10-16T14:50:56;12.90;73.70
74294;DHT22;64044;59.904;10.738;2022-10-16T14:53:22;12.90;73.80
74294;DHT22;64044;59.904;10.738;2022-10-16T14:55:48;12.90;74.70
74294;DHT22;64044;59.904;10.738;2022-10-16T14:58:21;13.00;75.40
74294;DHT22;64044;59.904;10.738;2022-10-16T15:00:49;13.10;75.70
74294;DHT22;64044;59.904;10.738;2022-10-16T15:03:15;13.30;75.20
74294;DHT22;64044;59.904;10.738;2022-10-16T15:05:40;13.40;74.40
74294;DHT22;64044;59.904;10.738;2022-10-16T15:08:06;13.40;73.90
74294;DHT22;64044;59.904;10.738;2022-10-16T15:10:38;13.50;74.30
74294;DHT22;64044;59.904;10.738;2022-10-16T15:13:03;13.80;75.80
74294;DHT22;64044;59.904;10.738;2022-10-16T15:15:34;14.10;77.10
74294;DHT22;64044;59.904;10.738;2022-10-16T15:18:01;14.60;76.90
74294;DHT22;64044;59.904;10.738;2022-10-16T15:20:32;15.10;76.50
74294;DHT22;64044;59.904;10.738;2022-10-16T15:23:01;15.50;76.00
74294;DHT22;64044;59.904;10.738;2022-10-16T15:25:41;16.00;74.10
74294;DHT22;64044;59.904;10.738;2022-10-16T15:28:08;16.50;71.30
74294;DHT22;64044;59.904;10.738;2022-10-16T15:30:34;16.90;70.40
74294;DHT22;64044;59.904;10.738;2022-10-16T15:33:01;17.30;68.40
74294;DHT22;64044;59.904;10.738;2022-10-16T15:35:27;17.50;66.70
74294;DHT22;64044;59.904;10.738;2022-10-16T15:37:53;17.80;65.80
74294;DHT22;64044;59.904;10.738;2022-10-16T15:40:19;18.00;64.30
74294;DHT22;64044;59.904;10.738;2022-10-16T15:42:44;18.20;63.00
74294;DHT22;64044;59.904;10.738;2022-10-16T15:45:11;18.30;62.30
74294;DHT22;64044;59.904;10.738;2022-10-16T15:47:37;18.30;61.50
74294;DHT22;64044;59.904;10.738;2022-10-16T15:50:04;18.30;60.60
74294;DHT22;64044;59.904;10.738;2022-10-16T15:52:30;18.20;59.40
74294;DHT22;64044;59.904;10.738;2022-10-16T15:54:57;18.00;58.80
74294;DHT22;64044;59.904;10.738;2022-10-16T15:57:23;17.70;58.40
74294;DHT22;64044;59.904;10.738;2022-10-16T15:59:50;17.50;58.30
74294;DHT22;64044;59.904;10.738;2022-10-16T16:02:15;17.20;58.20
74294;DHT22;64044;59.904;10.738;2022-10-16T16:04:41;16.80;58.50
74294;DHT22;64044;59.904;10.738;2022-10-16T16:07:07;16.50;58.30
74294;DHT22;64044;59.904;10.738;2022-10-16T16:09:33;16.10;58.70
74294;DHT22;64044;59.904;10.738;2022-10-16T16:12:00;15.80;59.20
74294;DHT22;64044;59.904;10.738;2022-10-16T16:14:26;15.50;59.80
74294;DHT22;64044;59.904;10.738;2022-10-16T16:16:54;15.10;60.60
74294;DHT22;64044;59.904;10.738;2022-10-16T16:19:20;14.80;61.20
74294;DHT22;64044;59.904;10.738;2022-10-16T16:21:47;14.60;62.00
74294;DHT22;64044;59.904;10.738;2022-10-16T16:24:12;14.40;62.70
74294;DHT22;64044;59.904;10.738;2022-10-16T16:26:38;14.20;63.40
74294;DHT22;64044;59.904;10.738;2022-10-16T16:29:12;14.00;63.80
74294;DHT22;64044;59.904;10.738;2022-10-16T16:31:39;13.80;64.40
74294;DHT22;64044;59.904;10.738;2022-10-16T16:34:05;13.70;65.00
74294;DHT22;64044;59.904;10.738;2022-10-16T16:36:31;13.50;65.40
74294;DHT22;64044;59.904;10.738;2022-10-16T16:38:57;13.40;66.00
74294;DHT22;64044;59.904;10.738;2022-10-16T16:41:25;13.30;66.40
74294;DHT22;64044;59.904;10.738;2022-10-16T16:43:52;13.10;66.70
74294;DHT22;64044;59.904;10.738;2022-10-16T16:46:19;13.10;67.10
74294;DHT22;64044;59.904;10.738;2022-10-16T16:48:45;12.90;67.40
74294;DHT22;64044;59.904;10.738;2022-10-16T16:51:14;12.90;67.80
74294;DHT22;64044;59.904;10.738;2022-10-16T16:53:46;12.80;68.10
74294;DHT22;64044;59.904;10.738;2022-10-16T16:56:11;12.70;68.30
74294;DHT22;64044;59.904;10.738;2022-10-16T16:58:37;12.60;68.60
74294;DHT22;64044;59.904;10.738;2022-10-16T17:01:04;12.50;68.90
74294;DHT22;64044;59.904;10.738;2022-10-16T17:03:31;12.50;69.30
74294;DHT22;64044;59.904;10.738;2022-10-16T17:06:02;12.40;69.70
74294;DHT22;64044;59.904;10.738;2022-10-16T17:08:28;12.40;70.00
74294;DHT22;64044;59.904;10.738;2022-10-16T17:10:55;12.40;70.30
74294;DHT22;64044;59.904;10.738;2022-10-16T17:13:26;12.30;70.50
74294;DHT22;64044;59.904;10.738;2022-10-16T17:15:52;12.30;70.80
74294;DHT22;64044;59.904;10.738;2022-10-16T17:18:19;12.30;71.10
74294;DHT22;64044;59.904;10.738;2022-10-16T17:20:46;12.20;71.30
74294;DHT22;64044;59.904;10.738;2022-10-16T17:23:12;12.20;71.60
74294;DHT22;64044;59.904;10.738;2022-10-16T17:25:38;12.10;71.80
74294;DHT22;64044;59.904;10.738;2022-10-16T17:28:05;12.10;72.20
74294;DHT22;64044;59.904;10.738;2022-10-16T17:30:31;12.20;72.40
74294;DHT22;64044;59.904;10.738;2022-10-16T17:32:58;12.10;72.60
74294;DHT22;64044;59.904;10.738;2022-10-16T17:35:24;12.10;72.70